createdAt,value
2022-10-04T00:00:19.960Z,1025.68
2022-10-04T00:00:50.520Z,1025.68
2022-10-04T00:01:21.113Z,1025.68
2022-10-04T00:01:51.751Z,1025.68
2022-10-04T00:02:22.300Z,1025.69
2022-10-04T00:02:52.880Z,1025.71
2022-10-04T00:03:23.453Z,1025.72
2022-10-04T00:03:54.006Z,1025.74
2022-10-04T00:04:24.588Z,1025.75
2022-10-04T00:04:55.155Z,1025.77
2022-10-04T00:05:25.702Z,1025.77
2022-10-04T00:05:56.225Z,1025.78
2022-10-04T00:06:26.793Z,1025.77
2022-10-04T00:06:57.381Z,1025.77
2022-10-04T00:07:27.988Z,1025.75
2022-10-04T00:07:58.541Z,1025.75
2022-10-04T00:08:29.147Z,1025.74
2022-10-04T00:08:59.732Z,1025.73
2022-10-04T00:09:30.308Z,1025.73
2022-10-04T00:10:00.866Z,1025.72
2022-10-04T00:10:31.443Z,1025.71
2022-10-04T00:11:02.021Z,1025.71
2022-10-04T00:11:32.557Z,1025.71
2022-10-04T00:12:03.137Z,1025.70
2022-10-04T00:12:33.671Z,1025.70
2022-10-04T00:13:04.257Z,1025.70
2022-10-04T00:13:34.840Z,1025.70
2022-10-04T00:14:05.425Z,1025.70
2022-10-04T00:14:35.990Z,1025.70
2022-10-04T00:15:06.590Z,1025.70
2022-10-04T00:15:37.162Z,1025.70
2022-10-04T00:16:07.838Z,1025.71
2022-10-04T00:16:38.699Z,1025.71
2022-10-04T00:17:09.328Z,1025.71
2022-10-04T00:17:39.899Z,1025.70
2022-10-04T00:18:10.476Z,1025.70
2022-10-04T00:18:41.046Z,1025.69
2022-10-04T00:19:11.590Z,1025.68
2022-10-04T00:19:42.154Z,1025.67
2022-10-04T00:20:12.706Z,1025.67
2022-10-04T00:20:43.272Z,1025.67
2022-10-04T00:21:13.868Z,1025.67
2022-10-04T00:21:44.418Z,1025.66
2022-10-04T00:22:14.972Z,1025.66
2022-10-04T00:22:45.515Z,1025.66
2022-10-04T00:23:16.092Z,1025.65
2022-10-04T00:23:46.676Z,1025.64
2022-10-04T00:24:17.215Z,1025.63
2022-10-04T00:24:47.754Z,1025.62
2022-10-04T00:25:18.305Z,1025.61
2022-10-04T00:25:48.838Z,1025.60
2022-10-04T00:26:19.408Z,1025.59
2022-10-04T00:26:49.994Z,1025.59
2022-10-04T00:27:20.580Z,1025.59
2022-10-04T00:27:51.203Z,1025.59
2022-10-04T00:28:21.815Z,1025.60
2022-10-04T00:28:52.393Z,1025.60
2022-10-04T00:29:22.909Z,1025.62
2022-10-04T00:29:53.447Z,1025.62
2022-10-04T00:30:24.010Z,1025.64
2022-10-04T00:30:54.625Z,1025.65
2022-10-04T00:31:25.315Z,1025.66
2022-10-04T00:31:55.862Z,1025.67
2022-10-04T00:32:26.450Z,1025.68
2022-10-04T00:32:57.022Z,1025.69
2022-10-04T00:33:27.557Z,1025.69
2022-10-04T00:33:58.125Z,1025.70
2022-10-04T00:34:30.278Z,1025.70
2022-10-04T00:34:59.371Z,1025.70
2022-10-04T00:35:29.929Z,1025.70
2022-10-04T00:36:00.511Z,1025.70
2022-10-04T00:36:31.075Z,1025.69
2022-10-04T00:37:01.658Z,1025.69
2022-10-04T00:37:32.239Z,1025.69
2022-10-04T00:38:02.818Z,1025.68
2022-10-04T00:38:33.377Z,1025.68
2022-10-04T00:39:03.997Z,1025.68
2022-10-04T00:39:34.559Z,1025.68
2022-10-04T00:40:05.124Z,1025.68
2022-10-04T00:40:35.693Z,1025.68
2022-10-04T00:41:06.253Z,1025.68
2022-10-04T00:41:36.819Z,1025.68
2022-10-04T00:42:07.366Z,1025.68
2022-10-04T00:42:37.943Z,1025.67
2022-10-04T00:43:08.529Z,1025.66
2022-10-04T00:43:39.090Z,1025.66
2022-10-04T00:44:09.660Z,1025.65
2022-10-04T00:44:40.234Z,1025.64
2022-10-04T00:45:10.791Z,1025.64
2022-10-04T00:45:41.346Z,1025.63
2022-10-04T00:46:12.010Z,1025.62
2022-10-04T00:46:42.562Z,1025.62
2022-10-04T00:47:13.127Z,1025.62
2022-10-04T00:47:43.707Z,1025.61
2022-10-04T00:48:14.296Z,1025.61
2022-10-04T00:48:44.885Z,1025.60
2022-10-04T00:49:15.464Z,1025.58
2022-10-04T00:49:46.021Z,1025.57
2022-10-04T00:50:16.633Z,1025.55
2022-10-04T00:50:47.205Z,1025.53
2022-10-04T00:51:17.743Z,1025.52
2022-10-04T00:51:48.310Z,1025.51
2022-10-04T00:52:18.887Z,1025.49
2022-10-04T00:52:49.442Z,1025.49
2022-10-04T00:53:20.013Z,1025.48
2022-10-04T00:53:50.614Z,1025.49
2022-10-04T00:54:21.214Z,1025.49
2022-10-04T00:54:51.727Z,1025.49
2022-10-04T00:55:22.277Z,1025.49
2022-10-04T00:55:52.826Z,1025.50
2022-10-04T00:56:23.404Z,1025.50
2022-10-04T00:56:53.948Z,1025.50
2022-10-04T00:57:24.519Z,1025.50
2022-10-04T00:57:55.090Z,1025.50
2022-10-04T00:58:25.670Z,1025.50
2022-10-04T00:58:56.285Z,1025.50
2022-10-04T00:59:26.866Z,1025.49
2022-10-04T00:59:57.432Z,1025.49
2022-10-04T01:00:28.002Z,1025.48
2022-10-04T01:00:58.654Z,1025.48
2022-10-04T01:01:29.333Z,1025.48
2022-10-04T01:01:59.945Z,1025.47
2022-10-04T01:02:30.618Z,1025.48
2022-10-04T01:03:01.169Z,1025.48
2022-10-04T01:03:31.748Z,1025.49
2022-10-04T01:04:02.303Z,1025.50
2022-10-04T01:04:32.904Z,1025.51
2022-10-04T01:05:03.487Z,1025.51
2022-10-04T01:05:34.072Z,1025.51
2022-10-04T01:06:04.621Z,1025.50
2022-10-04T01:06:35.181Z,1025.49
2022-10-04T01:07:05.779Z,1025.48
2022-10-04T01:07:36.343Z,1025.45
2022-10-04T01:08:06.917Z,1025.44
2022-10-04T01:08:37.463Z,1025.42
2022-10-04T01:09:08.032Z,1025.40
2022-10-04T01:09:38.622Z,1025.40
2022-10-04T01:10:09.162Z,1025.38
2022-10-04T01:10:39.752Z,1025.37
2022-10-04T01:11:10.313Z,1025.35
2022-10-04T01:11:41.177Z,1025.35
2022-10-04T01:12:11.938Z,1025.34
2022-10-04T01:12:42.518Z,1025.34
2022-10-04T01:13:13.174Z,1025.33
2022-10-04T01:13:43.725Z,1025.33
2022-10-04T01:14:14.261Z,1025.33
2022-10-04T01:14:44.815Z,1025.33
2022-10-04T01:15:15.374Z,1025.34
2022-10-04T01:15:46.008Z,1025.33
2022-10-04T01:16:16.689Z,1025.33
2022-10-04T01:16:47.255Z,1025.33
2022-10-04T01:17:17.804Z,1025.33
2022-10-04T01:17:48.383Z,1025.32
2022-10-04T01:18:18.963Z,1025.32
2022-10-04T01:18:49.499Z,1025.32
2022-10-04T01:19:20.074Z,1025.32
2022-10-04T01:19:50.650Z,1025.32
2022-10-04T01:20:21.227Z,1025.32
2022-10-04T01:20:51.762Z,1025.31
2022-10-04T01:21:22.326Z,1025.32
2022-10-04T01:21:52.882Z,1025.32
2022-10-04T01:22:23.431Z,1025.32
2022-10-04T01:22:53.999Z,1025.32
2022-10-04T01:23:24.612Z,1025.31
2022-10-04T01:23:55.179Z,1025.31
2022-10-04T01:24:25.755Z,1025.29
2022-10-04T01:24:56.351Z,1025.28
2022-10-04T01:25:26.876Z,1025.27
2022-10-04T01:25:57.447Z,1025.26
2022-10-04T01:26:28.007Z,1025.24
2022-10-04T01:26:58.581Z,1025.22
2022-10-04T01:27:29.148Z,1025.20
2022-10-04T01:27:59.742Z,1025.18
2022-10-04T01:28:30.342Z,1025.17
2022-10-04T01:29:00.892Z,1025.15
2022-10-04T01:29:31.486Z,1025.13
2022-10-04T01:30:02.027Z,1025.12
2022-10-04T01:30:32.608Z,1025.10
2022-10-04T01:31:03.262Z,1025.08
2022-10-04T01:31:33.914Z,1025.07
2022-10-04T01:32:04.481Z,1025.05
2022-10-04T01:32:35.033Z,1025.04
2022-10-04T01:33:05.576Z,1025.03
2022-10-04T01:33:36.154Z,1025.01
2022-10-04T01:34:06.741Z,1025.00
2022-10-04T01:34:37.319Z,1025.00
2022-10-04T01:35:07.904Z,1024.99
2022-10-04T01:35:38.506Z,1024.97
2022-10-04T01:36:09.093Z,1024.96
2022-10-04T01:36:39.671Z,1024.96
2022-10-04T01:37:10.232Z,1024.94
2022-10-04T01:37:40.774Z,1024.94
2022-10-04T01:38:11.341Z,1024.93
2022-10-04T01:38:41.893Z,1024.93
2022-10-04T01:39:12.464Z,1024.94
2022-10-04T01:39:43.041Z,1024.94
2022-10-04T01:40:13.637Z,1024.95
2022-10-04T01:40:44.188Z,1024.96
2022-10-04T01:41:14.776Z,1024.96
2022-10-04T01:41:45.374Z,1024.96
2022-10-04T01:42:15.963Z,1024.97
2022-10-04T01:42:46.536Z,1024.97
2022-10-04T01:43:17.079Z,1024.97
2022-10-04T01:43:47.605Z,1024.98
2022-10-04T01:44:18.152Z,1024.98
2022-10-04T01:44:48.732Z,1024.99
2022-10-04T01:45:19.303Z,1024.99
2022-10-04T01:45:49.851Z,1025.00
2022-10-04T01:46:20.421Z,1025.01
2022-10-04T01:46:51.086Z,1025.01
2022-10-04T01:47:21.683Z,1025.02
2022-10-04T01:47:52.230Z,1025.03
2022-10-04T01:48:22.777Z,1025.03
2022-10-04T01:48:53.430Z,1025.03
2022-10-04T01:49:23.998Z,1025.03
2022-10-04T01:49:54.577Z,1025.03
2022-10-04T01:50:25.151Z,1025.03
2022-10-04T01:50:55.707Z,1025.03
2022-10-04T01:51:26.263Z,1025.02
2022-10-04T01:51:56.870Z,1025.02
2022-10-04T01:52:27.430Z,1025.00
2022-10-04T01:52:57.999Z,1024.99
2022-10-04T01:53:28.569Z,1024.97
2022-10-04T01:53:59.152Z,1024.96
2022-10-04T01:54:29.737Z,1024.95
2022-10-04T01:55:00.302Z,1024.93
2022-10-04T01:55:30.917Z,1024.90
2022-10-04T01:56:01.468Z,1024.88
2022-10-04T01:56:32.039Z,1024.86
2022-10-04T01:57:02.651Z,1024.84
2022-10-04T01:57:33.207Z,1024.82
2022-10-04T01:58:03.794Z,1024.80
2022-10-04T01:58:34.362Z,1024.79
2022-10-04T01:59:04.927Z,1024.77
2022-10-04T01:59:35.497Z,1024.77
2022-10-04T02:00:06.088Z,1024.76
2022-10-04T02:00:36.667Z,1024.76
2022-10-04T02:01:07.325Z,1024.76
2022-10-04T02:01:38.020Z,1024.77
2022-10-04T02:02:08.599Z,1024.78
2022-10-04T02:02:39.160Z,1024.79
2022-10-04T02:03:09.753Z,1024.80
2022-10-04T02:03:40.363Z,1024.81
2022-10-04T02:04:10.989Z,1024.82
2022-10-04T02:04:41.583Z,1024.84
2022-10-04T02:05:12.164Z,1024.85
2022-10-04T02:05:42.740Z,1024.86
2022-10-04T02:06:13.304Z,1024.87
2022-10-04T02:06:43.832Z,1024.87
2022-10-04T02:07:14.429Z,1024.87
2022-10-04T02:07:44.983Z,1024.86
2022-10-04T02:08:15.549Z,1024.86
2022-10-04T02:08:46.122Z,1024.86
2022-10-04T02:09:16.694Z,1024.86
2022-10-04T02:09:47.264Z,1024.86
2022-10-04T02:10:17.853Z,1024.86
2022-10-04T02:10:48.449Z,1024.86
2022-10-04T02:11:19.006Z,1024.87
2022-10-04T02:11:49.577Z,1024.88
2022-10-04T02:12:20.149Z,1024.89
2022-10-04T02:12:50.712Z,1024.91
2022-10-04T02:13:21.235Z,1024.92
2022-10-04T02:13:51.849Z,1024.93
2022-10-04T02:14:22.405Z,1024.94
2022-10-04T02:14:52.977Z,1024.95
2022-10-04T02:15:23.553Z,1024.96
2022-10-04T02:15:54.190Z,1024.96
2022-10-04T02:16:24.851Z,1024.95
2022-10-04T02:16:55.449Z,1024.95
2022-10-04T02:17:26.014Z,1024.94
2022-10-04T02:17:56.586Z,1024.93
2022-10-04T02:18:27.146Z,1024.92
2022-10-04T02:18:57.745Z,1024.92
2022-10-04T02:19:28.313Z,1024.92
2022-10-04T02:19:58.884Z,1024.91
2022-10-04T02:20:29.473Z,1024.91
2022-10-04T02:21:00.042Z,1024.90
2022-10-04T02:21:30.584Z,1024.89
2022-10-04T02:22:01.143Z,1024.87
2022-10-04T02:22:31.726Z,1024.85
2022-10-04T02:23:02.285Z,1024.84
2022-10-04T02:23:32.813Z,1024.83
2022-10-04T02:24:03.378Z,1024.82
2022-10-04T02:24:33.985Z,1024.81
2022-10-04T02:25:04.521Z,1024.80
2022-10-04T02:25:35.128Z,1024.81
2022-10-04T02:26:05.760Z,1024.81
2022-10-04T02:26:36.326Z,1024.82
2022-10-04T02:27:06.907Z,1024.83
2022-10-04T02:27:37.478Z,1024.84
2022-10-04T02:28:08.106Z,1024.85
2022-10-04T02:28:38.684Z,1024.85
2022-10-04T02:29:09.267Z,1024.84
2022-10-04T02:29:39.840Z,1024.84
2022-10-04T02:30:10.419Z,1024.83
2022-10-04T02:30:41.013Z,1024.81
2022-10-04T02:31:12.729Z,1024.80
2022-10-04T02:31:42.671Z,1024.78
2022-10-04T02:32:13.393Z,1024.77
2022-10-04T02:32:43.980Z,1024.76
2022-10-04T02:33:14.561Z,1024.76
2022-10-04T02:33:45.124Z,1024.75
2022-10-04T02:34:15.684Z,1024.75
2022-10-04T02:34:46.279Z,1024.75
2022-10-04T02:35:16.836Z,1024.75
2022-10-04T02:35:47.437Z,1024.75
2022-10-04T02:36:18.024Z,1024.75
2022-10-04T02:36:48.587Z,1024.75
2022-10-04T02:37:19.143Z,1024.74
2022-10-04T02:37:49.687Z,1024.74
2022-10-04T02:38:20.268Z,1024.75
2022-10-04T02:38:50.839Z,1024.76
2022-10-04T02:39:21.391Z,1024.77
2022-10-04T02:39:51.943Z,1024.78
2022-10-04T02:40:22.523Z,1024.79
2022-10-04T02:40:53.108Z,1024.81
2022-10-04T02:41:23.679Z,1024.82
2022-10-04T02:41:54.211Z,1024.83
2022-10-04T02:42:24.785Z,1024.84
2022-10-04T02:42:55.380Z,1024.84
2022-10-04T02:43:25.947Z,1024.84
2022-10-04T02:43:56.534Z,1024.85
2022-10-04T02:44:27.112Z,1024.85
2022-10-04T02:44:57.676Z,1024.84
2022-10-04T02:45:28.232Z,1024.84
2022-10-04T02:45:58.810Z,1024.84
2022-10-04T02:46:29.529Z,1024.83
2022-10-04T02:47:00.107Z,1024.83
2022-10-04T02:47:30.643Z,1024.82
2022-10-04T02:48:01.239Z,1024.80
2022-10-04T02:48:31.808Z,1024.79
2022-10-04T02:49:02.394Z,1024.78
2022-10-04T02:49:32.973Z,1024.77
2022-10-04T02:50:03.533Z,1024.76
2022-10-04T02:50:34.083Z,1024.76
2022-10-04T02:51:04.675Z,1024.75
2022-10-04T02:51:35.253Z,1024.75
2022-10-04T02:52:05.817Z,1024.75
2022-10-04T02:52:36.402Z,1024.75
2022-10-04T02:53:06.979Z,1024.75
2022-10-04T02:53:37.544Z,1024.74
2022-10-04T02:54:08.122Z,1024.73
2022-10-04T02:54:38.680Z,1024.72
2022-10-04T02:55:09.240Z,1024.71
2022-10-04T02:55:39.810Z,1024.69
2022-10-04T02:56:10.390Z,1024.68
2022-10-04T02:56:40.992Z,1024.66
2022-10-04T02:57:11.557Z,1024.65
2022-10-04T02:57:42.147Z,1024.64
2022-10-04T02:58:12.700Z,1024.63
2022-10-04T02:58:43.270Z,1024.64
2022-10-04T02:59:13.844Z,1024.64
2022-10-04T02:59:44.420Z,1024.64
2022-10-04T03:00:14.997Z,1024.65
2022-10-04T03:00:45.588Z,1024.65
2022-10-04T03:01:16.231Z,1024.65
2022-10-04T03:01:46.879Z,1024.64
2022-10-04T03:02:17.497Z,1024.64
2022-10-04T03:02:48.185Z,1024.64
2022-10-04T03:03:18.827Z,1024.63
2022-10-04T03:03:49.394Z,1024.63
2022-10-04T03:04:19.949Z,1024.63
2022-10-04T03:04:50.529Z,1024.63
2022-10-04T03:05:21.088Z,1024.63
2022-10-04T03:05:51.663Z,1024.64
2022-10-04T03:06:22.224Z,1024.65
2022-10-04T03:06:52.770Z,1024.65
2022-10-04T03:07:23.323Z,1024.66
2022-10-04T03:07:53.917Z,1024.67
2022-10-04T03:08:24.491Z,1024.68
2022-10-04T03:08:55.072Z,1024.68
2022-10-04T03:09:29.662Z,1024.68
2022-10-04T03:09:56.311Z,1024.67
2022-10-04T03:10:26.866Z,1024.66
2022-10-04T03:10:58.296Z,1024.65
2022-10-04T03:11:28.357Z,1024.64
2022-10-04T03:11:58.940Z,1024.62
2022-10-04T03:12:29.477Z,1024.61
2022-10-04T03:13:00.061Z,1024.59
2022-10-04T03:13:30.626Z,1024.58
2022-10-04T03:14:01.209Z,1024.57
2022-10-04T03:14:31.764Z,1024.56
2022-10-04T03:15:02.298Z,1024.55
2022-10-04T03:15:32.868Z,1024.54
2022-10-04T03:16:03.497Z,1024.54
2022-10-04T03:16:34.113Z,1024.54
2022-10-04T03:17:04.745Z,1024.54
2022-10-04T03:17:35.335Z,1024.55
2022-10-04T03:18:05.918Z,1024.55
2022-10-04T03:18:36.476Z,1024.56
2022-10-04T03:19:07.047Z,1024.56
2022-10-04T03:19:37.632Z,1024.57
2022-10-04T03:20:08.202Z,1024.58
2022-10-04T03:20:38.786Z,1024.59
2022-10-04T03:21:09.357Z,1024.60
2022-10-04T03:21:40.104Z,1024.60
2022-10-04T03:22:10.830Z,1024.61
2022-10-04T03:22:46.070Z,1024.61
2022-10-04T03:23:12.182Z,1024.61
2022-10-04T03:23:42.760Z,1024.61
2022-10-04T03:24:13.329Z,1024.60
2022-10-04T03:24:43.901Z,1024.60
2022-10-04T03:25:14.523Z,1024.59
2022-10-04T03:25:45.093Z,1024.59
2022-10-04T03:26:15.656Z,1024.59
2022-10-04T03:26:46.229Z,1024.58
2022-10-04T03:27:16.831Z,1024.58
2022-10-04T03:27:47.392Z,1024.59
2022-10-04T03:28:18.068Z,1024.59
2022-10-04T03:28:48.648Z,1024.59
2022-10-04T03:29:19.208Z,1024.59
2022-10-04T03:29:49.784Z,1024.59
2022-10-04T03:30:20.381Z,1024.58
2022-10-04T03:30:50.950Z,1024.58
2022-10-04T03:31:21.602Z,1024.57
2022-10-04T03:31:52.226Z,1024.56
2022-10-04T03:32:22.832Z,1024.56
2022-10-04T03:32:53.402Z,1024.54
2022-10-04T03:33:24.107Z,1024.53
2022-10-04T03:33:54.652Z,1024.53
2022-10-04T03:34:25.222Z,1024.53
2022-10-04T03:34:55.795Z,1024.53
2022-10-04T03:35:26.355Z,1024.53
2022-10-04T03:35:56.912Z,1024.54
2022-10-04T03:36:27.503Z,1024.55
2022-10-04T03:36:58.031Z,1024.56
2022-10-04T03:37:28.599Z,1024.57
2022-10-04T03:37:59.128Z,1024.57
2022-10-04T03:38:29.717Z,1024.59
2022-10-04T03:39:00.277Z,1024.59
2022-10-04T03:39:30.862Z,1024.60
2022-10-04T03:40:01.459Z,1024.60
2022-10-04T03:40:32.041Z,1024.61
2022-10-04T03:41:02.619Z,1024.62
2022-10-04T03:41:33.202Z,1024.62
2022-10-04T03:42:03.760Z,1024.62
2022-10-04T03:42:34.351Z,1024.63
2022-10-04T03:43:04.927Z,1024.64
2022-10-04T03:43:35.490Z,1024.64
2022-10-04T03:44:06.015Z,1024.65
2022-10-04T03:44:36.580Z,1024.66
2022-10-04T03:45:07.187Z,1024.67
2022-10-04T03:45:37.789Z,1024.68
2022-10-04T03:46:08.470Z,1024.69
2022-10-04T03:46:39.037Z,1024.69
2022-10-04T03:47:09.626Z,1024.69
2022-10-04T03:47:40.186Z,1024.69
2022-10-04T03:48:10.739Z,1024.69
2022-10-04T03:48:41.319Z,1024.68
2022-10-04T03:49:11.887Z,1024.68
2022-10-04T03:49:42.476Z,1024.68
2022-10-04T03:50:13.036Z,1024.68
2022-10-04T03:50:43.629Z,1024.68
2022-10-04T03:51:14.186Z,1024.67
2022-10-04T03:51:44.754Z,1024.66
2022-10-04T03:52:15.302Z,1024.65
2022-10-04T03:52:45.849Z,1024.65
2022-10-04T03:53:16.401Z,1024.64
2022-10-04T03:53:46.968Z,1024.63
2022-10-04T03:54:17.547Z,1024.62
2022-10-04T03:54:48.118Z,1024.62
2022-10-04T03:55:18.696Z,1024.61
2022-10-04T03:55:49.274Z,1024.61
2022-10-04T03:56:19.840Z,1024.61
2022-10-04T03:56:50.422Z,1024.60
2022-10-04T03:57:20.991Z,1024.60
2022-10-04T03:57:51.592Z,1024.59
2022-10-04T03:58:22.142Z,1024.58
2022-10-04T03:58:52.716Z,1024.57
2022-10-04T03:59:23.252Z,1024.56
2022-10-04T03:59:53.837Z,1024.54
2022-10-04T04:00:24.401Z,1024.53
2022-10-04T04:00:54.956Z,1024.52
2022-10-04T04:01:25.661Z,1024.52
2022-10-04T04:01:56.311Z,1024.51
2022-10-04T04:02:26.965Z,1024.50
2022-10-04T04:02:57.568Z,1024.50
2022-10-04T04:03:28.145Z,1024.50
2022-10-04T04:03:58.712Z,1024.49
2022-10-04T04:04:29.309Z,1024.49
2022-10-04T04:04:59.902Z,1024.48
2022-10-04T04:05:30.480Z,1024.48
2022-10-04T04:06:01.058Z,1024.48
2022-10-04T04:06:31.650Z,1024.48
2022-10-04T04:07:02.232Z,1024.46
2022-10-04T04:07:32.762Z,1024.46
2022-10-04T04:08:03.344Z,1024.45
2022-10-04T04:08:33.876Z,1024.45
2022-10-04T04:09:04.478Z,1024.44
2022-10-04T04:09:35.046Z,1024.43
2022-10-04T04:10:05.613Z,1024.42
2022-10-04T04:10:36.168Z,1024.41
2022-10-04T04:11:06.715Z,1024.39
2022-10-04T04:11:37.291Z,1024.38
2022-10-04T04:12:07.898Z,1024.36
2022-10-04T04:12:38.428Z,1024.34
2022-10-04T04:13:09.028Z,1024.33
2022-10-04T04:13:39.584Z,1024.31
2022-10-04T04:14:10.146Z,1024.30
2022-10-04T04:14:40.704Z,1024.29
2022-10-04T04:15:11.273Z,1024.29
2022-10-04T04:15:41.818Z,1024.29
2022-10-04T04:16:12.493Z,1024.29
2022-10-04T04:16:43.100Z,1024.29
2022-10-04T04:17:13.661Z,1024.29
2022-10-04T04:17:44.224Z,1024.30
2022-10-04T04:18:14.767Z,1024.31
2022-10-04T04:18:45.345Z,1024.31
2022-10-04T04:19:15.941Z,1024.32
2022-10-04T04:19:46.508Z,1024.32
2022-10-04T04:20:17.058Z,1024.33
2022-10-04T04:20:47.641Z,1024.33
2022-10-04T04:21:18.206Z,1024.35
2022-10-04T04:21:48.753Z,1024.36
2022-10-04T04:22:19.345Z,1024.37
2022-10-04T04:22:49.921Z,1024.39
2022-10-04T04:23:20.509Z,1024.41
2022-10-04T04:23:51.062Z,1024.42
2022-10-04T04:24:21.644Z,1024.44
2022-10-04T04:24:52.216Z,1024.45
2022-10-04T04:25:22.771Z,1024.47
2022-10-04T04:25:53.353Z,1024.48
2022-10-04T04:26:23.915Z,1024.49
2022-10-04T04:26:54.481Z,1024.49
2022-10-04T04:27:29.053Z,1024.49
2022-10-04T04:27:55.664Z,1024.49
2022-10-04T04:28:26.384Z,1024.48
2022-10-04T04:28:56.987Z,1024.47
2022-10-04T04:29:27.546Z,1024.47
2022-10-04T04:29:58.098Z,1024.47
2022-10-04T04:30:28.663Z,1024.47
2022-10-04T04:30:59.271Z,1024.47
2022-10-04T04:31:29.896Z,1024.48
2022-10-04T04:32:00.599Z,1024.49
2022-10-04T04:32:31.235Z,1024.51
2022-10-04T04:33:01.785Z,1024.53
2022-10-04T04:33:32.362Z,1024.54
2022-10-04T04:34:02.943Z,1024.56
2022-10-04T04:34:33.487Z,1024.58
2022-10-04T04:35:03.250Z,1024.59
2022-10-04T04:35:34.846Z,1024.60
2022-10-04T04:36:05.389Z,1024.61
2022-10-04T04:36:35.924Z,1024.62
2022-10-04T04:37:06.480Z,1024.63
2022-10-04T04:37:37.037Z,1024.64
2022-10-04T04:38:07.575Z,1024.65
2022-10-04T04:38:38.151Z,1024.67
2022-10-04T04:39:08.740Z,1024.68
2022-10-04T04:39:39.298Z,1024.70
2022-10-04T04:40:09.865Z,1024.71
2022-10-04T04:40:40.424Z,1024.72
2022-10-04T04:41:11.001Z,1024.73
2022-10-04T04:41:43.094Z,1024.74
2022-10-04T04:42:12.074Z,1024.75
2022-10-04T04:42:42.665Z,1024.75
2022-10-04T04:43:13.251Z,1024.75
2022-10-04T04:43:43.801Z,1024.76
2022-10-04T04:44:14.381Z,1024.76
2022-10-04T04:44:44.955Z,1024.77
2022-10-04T04:45:15.479Z,1024.78
2022-10-04T04:45:46.110Z,1024.79
2022-10-04T04:46:27.013Z,1024.80
2022-10-04T04:46:47.577Z,1024.81
2022-10-04T04:47:18.328Z,1024.82
2022-10-04T04:47:48.875Z,1024.83
2022-10-04T04:48:19.424Z,1024.84
2022-10-04T04:48:49.984Z,1024.84
2022-10-04T04:49:20.527Z,1024.84
2022-10-04T04:49:51.091Z,1024.84
2022-10-04T04:50:21.698Z,1024.84
2022-10-04T04:50:52.222Z,1024.83
2022-10-04T04:51:22.802Z,1024.83
2022-10-04T04:51:53.286Z,1024.82
2022-10-04T04:52:24.363Z,1024.81
2022-10-04T04:52:54.966Z,1024.81
2022-10-04T04:53:25.513Z,1024.80
2022-10-04T04:53:56.095Z,1024.80
2022-10-04T04:54:26.678Z,1024.79
2022-10-04T04:54:57.192Z,1024.78
2022-10-04T04:55:28.240Z,1024.78
2022-10-04T04:56:04.349Z,1024.77
2022-10-04T04:56:29.968Z,1024.76
2022-10-04T04:57:01.002Z,1024.75
2022-10-04T04:57:32.090Z,1024.74
2022-10-04T04:58:02.662Z,1024.73
2022-10-04T04:58:33.284Z,1024.73
2022-10-04T04:59:03.846Z,1024.73
2022-10-04T04:59:34.330Z,1024.74
2022-10-04T05:00:05.352Z,1024.74
2022-10-04T05:00:36.412Z,1024.75
2022-10-04T05:01:07.020Z,1024.75
2022-10-04T05:01:37.549Z,1024.76
2022-10-04T05:02:08.600Z,1024.76
2022-10-04T05:02:39.682Z,1024.77
2022-10-04T05:03:10.169Z,1024.78
2022-10-04T05:03:41.179Z,1024.79
2022-10-04T05:04:12.210Z,1024.80
2022-10-04T05:04:43.283Z,1024.81
2022-10-04T05:05:13.766Z,1024.82
2022-10-04T05:05:44.807Z,1024.82
2022-10-04T05:06:15.839Z,1024.82
2022-10-04T05:06:46.864Z,1024.81
2022-10-04T05:07:17.876Z,1024.81
2022-10-04T05:07:48.915Z,1024.80
2022-10-04T05:08:19.442Z,1024.79
2022-10-04T05:08:50.459Z,1024.78
2022-10-04T05:09:21.494Z,1024.78
2022-10-04T05:09:52.034Z,1024.78
2022-10-04T05:10:22.540Z,1024.78
2022-10-04T05:10:53.554Z,1024.77
2022-10-04T05:11:24.091Z,1024.76
2022-10-04T05:11:55.097Z,1024.75
2022-10-04T05:12:26.124Z,1024.73
2022-10-04T05:12:57.155Z,1024.70
2022-10-04T05:13:27.715Z,1024.67
2022-10-04T05:13:58.235Z,1024.64
2022-10-04T05:14:29.312Z,1024.61
2022-10-04T05:14:59.841Z,1024.57
2022-10-04T05:15:30.392Z,1024.55
2022-10-04T05:16:00.950Z,1024.53
2022-10-04T05:16:31.610Z,1024.51
2022-10-04T05:17:02.127Z,1024.49
2022-10-04T05:17:32.652Z,1024.48
2022-10-04T05:18:03.178Z,1024.47
2022-10-04T05:18:34.204Z,1024.45
2022-10-04T05:19:05.204Z,1024.43
2022-10-04T05:19:35.751Z,1024.42
2022-10-04T05:20:06.278Z,1024.39
2022-10-04T05:20:36.783Z,1024.38
2022-10-04T05:21:07.307Z,1024.36
2022-10-04T05:21:42.581Z,1024.35
2022-10-04T05:22:09.181Z,1024.34
2022-10-04T05:22:40.202Z,1024.32
2022-10-04T05:23:11.216Z,1024.31
2022-10-04T05:23:42.222Z,1024.30
2022-10-04T05:24:12.781Z,1024.29
2022-10-04T05:24:43.296Z,1024.29
2022-10-04T05:25:14.289Z,1024.29
2022-10-04T05:25:44.831Z,1024.29
2022-10-04T05:26:15.842Z,1024.30
2022-10-04T05:26:46.374Z,1024.30
2022-10-04T05:27:16.880Z,1024.31
2022-10-04T05:27:47.905Z,1024.32
2022-10-04T05:28:19.043Z,1024.32
2022-10-04T05:28:49.563Z,1024.33
2022-10-04T05:29:20.563Z,1024.34
2022-10-04T05:29:51.888Z,1024.34
2022-10-04T05:30:22.399Z,1024.35
2022-10-04T05:30:53.422Z,1024.36
2022-10-04T05:31:24.025Z,1024.37
2022-10-04T05:31:54.584Z,1024.38
2022-10-04T05:32:25.118Z,1024.40
2022-10-04T05:32:55.651Z,1024.41
2022-10-04T05:33:30.664Z,1024.42
2022-10-04T05:33:57.427Z,1024.43
2022-10-04T05:34:28.450Z,1024.45
2022-10-04T05:34:58.971Z,1024.45
2022-10-04T05:35:30.009Z,1024.46
2022-10-04T05:36:01.038Z,1024.47
2022-10-04T05:36:32.070Z,1024.47
2022-10-04T05:37:02.586Z,1024.48
2022-10-04T05:37:33.109Z,1024.48
2022-10-04T05:38:04.138Z,1024.49
2022-10-04T05:38:35.171Z,1024.50
2022-10-04T05:39:05.682Z,1024.50
2022-10-04T05:39:36.736Z,1024.51
2022-10-04T05:40:07.263Z,1024.52
2022-10-04T05:40:37.797Z,1024.54
2022-10-04T05:41:08.817Z,1024.56
2022-10-04T05:41:39.345Z,1024.57
2022-10-04T05:42:10.374Z,1024.59
2022-10-04T05:42:41.406Z,1024.60
2022-10-04T05:43:12.505Z,1024.62
2022-10-04T05:43:43.029Z,1024.62
2022-10-04T05:44:14.063Z,1024.63
2022-10-04T05:44:44.617Z,1024.63
2022-10-04T05:45:15.168Z,1024.64
2022-10-04T05:45:46.204Z,1024.64
2022-10-04T05:46:16.804Z,1024.64
2022-10-04T05:46:47.362Z,1024.64
2022-10-04T05:47:17.887Z,1024.63
2022-10-04T05:47:48.874Z,1024.64
2022-10-04T05:48:19.418Z,1024.64
2022-10-04T05:48:50.447Z,1024.65
2022-10-04T05:49:20.960Z,1024.65
2022-10-04T05:49:51.991Z,1024.66
2022-10-04T05:50:22.545Z,1024.67
2022-10-04T05:50:53.129Z,1024.69
2022-10-04T05:51:23.682Z,1024.70
2022-10-04T05:51:54.735Z,1024.71
2022-10-04T05:52:25.741Z,1024.72
2022-10-04T05:52:56.266Z,1024.72
2022-10-04T05:53:27.340Z,1024.73
2022-10-04T05:53:57.821Z,1024.73
2022-10-04T05:54:28.848Z,1024.73
2022-10-04T05:54:59.463Z,1024.72
2022-10-04T05:55:30.523Z,1024.72
2022-10-04T05:56:01.039Z,1024.72
2022-10-04T05:56:32.064Z,1024.71
2022-10-04T05:57:03.137Z,1024.71
2022-10-04T05:57:33.638Z,1024.70
2022-10-04T05:58:04.649Z,1024.70
2022-10-04T05:58:35.654Z,1024.71
2022-10-04T05:59:06.678Z,1024.72
2022-10-04T05:59:37.194Z,1024.72
2022-10-04T06:00:08.236Z,1024.73
2022-10-04T06:00:39.274Z,1024.73
2022-10-04T06:01:09.847Z,1024.74
2022-10-04T06:01:40.498Z,1024.74
2022-10-04T06:02:11.175Z,1024.75
2022-10-04T06:02:41.731Z,1024.75
2022-10-04T06:03:12.243Z,1024.76
2022-10-04T06:03:43.264Z,1024.77
2022-10-04T06:04:14.454Z,1024.78
2022-10-04T06:04:44.926Z,1024.79
2022-10-04T06:05:15.966Z,1024.81
2022-10-04T06:05:46.975Z,1024.82
2022-10-04T06:06:17.998Z,1024.84
2022-10-04T06:06:49.046Z,1024.85
2022-10-04T06:07:20.100Z,1024.86
2022-10-04T06:07:50.589Z,1024.86
2022-10-04T06:08:21.634Z,1024.86
2022-10-04T06:08:52.131Z,1024.86
2022-10-04T06:09:23.171Z,1024.86
2022-10-04T06:09:54.191Z,1024.85
2022-10-04T06:10:24.700Z,1024.84